Time;durP1;ratioP1;P1;durP2;ratioP2;P2;SDS_P1;SDS_P2;PMS_P1;PMS_P2;Temp;Humidity;BMP_temperature;BMP_pressure;BME280_temperature;BME280_humidity;BME280_pressure;Samples;Min_cycle;Max_cycle;Signal;HPM_P1;HPM_P2
2022/04/24 00:20:24;;;;;;;10.88;9.60;;;;;;;11.58;60.30;94772.84;5064777;28;20053;-81
2022/04/24 00:31:53;;;;;;;11.23;9.52;;;;;;;11.50;60.65;94758.31;5050987;28;20124;-81
2022/04/24 02:12:30;;;;;;;14.68;11.43;;;;;;;11.82;60.83;94674.28;5062668;28;20049;-81
2022/04/24 02:19:38;;;;;;;17.92;12.38;;;;;;;11.79;60.60;94674.75;5021298;28;20108;-81
2022/04/24 02:33:22;;;;;;;14.82;12.35;;;;;;;11.76;60.79;94728.25;5018689;28;20064;-81
2022/04/24 02:36:51;;;;;;;16.58;12.65;;;;;;;11.79;60.77;94753.91;5020838;28;20513;-81
2022/04/24 02:40:35;;;;;;;15.93;12.68;;;;;;;11.80;60.74;94779.00;4973232;29;20099;-82
2022/04/24 02:54:36;;;;;;;13.75;11.95;;;;;;;11.86;60.76;94772.84;4951610;29;20047;-81
2022/04/24 03:11:04;;;;;;;16.50;13.65;;;;;;;11.80;61.93;94776.38;4887094;29;20061;-81
2022/04/24 03:27:18;;;;;;;17.83;15.07;;;;;;;11.83;62.81;94812.50;5126446;22;20053;-81
2022/04/24 03:39:28;;;;;;;17.73;15.23;;;;;;;11.86;63.10;94796.34;5462460;22;20081;-80
2022/04/24 03:41:56;;;;;;;16.98;14.48;;;;;;;11.89;63.42;94806.34;5023154;28;20072;-80
2022/04/24 03:48:36;;;;;;;19.38;13.85;;;;;;;11.93;63.78;94809.31;5022321;28;20057;-80
2022/04/24 03:54:35;;;;;;;21.55;16.20;;;;;;;11.86;64.83;94801.56;5023058;28;20057;-80
2022/04/24 04:04:14;;;;;;;20.95;16.27;;;;;;;11.73;66.29;94799.25;4999654;28;20046;-81
2022/04/24 04:24:00;;;;;;;24.50;17.60;;;;;;;11.49;67.79;94827.25;5010435;28;20046;-80
2022/04/24 04:48:26;;;;;;;22.83;17.23;;;;;;;11.55;67.60;94832.34;5012529;28;20141;-80
2022/04/24 04:54:41;;;;;;;20.33;17.02;;;;;;;11.58;67.90;94843.34;5007678;22;20085;-76
2022/04/24 04:57:09;;;;;;;19.73;16.58;;;;;;;11.56;67.92;94846.19;5014895;28;20137;-77
2022/04/24 04:59:37;;;;;;;20.35;16.10;;;;;;;11.57;68.18;94847.78;5015245;28;20141;-77
2022/04/24 05:02:05;;;;;;;19.92;16.40;;;;;;;11.58;68.26;94851.19;5015470;28;20062;-77
2022/04/24 05:04:33;;;;;;;21.60;18.67;;;;;;;11.55;68.22;94858.44;5014645;28;20050;-77
2022/04/24 05:07:01;;;;;;;21.45;18.10;;;;;;;11.58;68.35;94856.41;5014557;28;20064;-77
2022/04/24 05:09:28;;;;;;;22.73;17.45;;;;;;;11.60;68.53;94864.81;5015294;28;20426;-77
2022/04/24 05:11:57;;;;;;;20.98;16.58;;;;;;;11.61;68.83;94866.38;5014827;28;20050;-77
2022/04/24 05:14:25;;;;;;;22.38;17.17;;;;;;;11.62;68.65;94862.75;5015028;28;20053;-77
2022/04/24 05:16:52;;;;;;;23.70;17.13;;;;;;;11.63;68.52;94869.56;5013817;28;20050;-77
2022/04/24 05:19:20;;;;;;;23.48;18.65;;;;;;;11.62;68.72;94883.66;5015260;28;20089;-77
2022/04/24 05:21:47;;;;;;;25.33;19.13;;;;;;;11.59;69.01;94871.84;5014984;28;20061;-77
2022/04/24 05:24:15;;;;;;;22.25;17.05;;;;;;;11.60;69.05;94875.25;5014416;28;20525;-77
2022/04/24 05:26:42;;;;;;;22.35;17.70;;;;;;;11.60;69.12;94883.09;5013726;28;20461;-77
2022/04/24 05:29:12;;;;;;;23.17;19.08;;;;;;;11.59;69.22;94894.53;5018822;28;20057;-78
2022/04/24 05:31:40;;;;;;;24.98;18.52;;;;;;;11.58;69.22;94898.19;5035638;28;20041;-77
2022/04/24 05:34:08;;;;;;;28.77;19.63;;;;;;;11.58;69.62;94914.63;5034689;28;20065;-77
2022/04/24 05:36:35;;;;;;;26.00;19.92;;;;;;;11.58;69.55;94913.84;5024292;28;20060;-77
2022/04/24 05:39:03;;;;;;;25.23;19.55;;;;;;;11.59;69.88;94931.91;5014138;28;20056;-77
2022/04/24 05:41:30;;;;;;;25.23;20.15;;;;;;;11.59;69.96;94938.94;5013935;28;20061;-77
2022/04/24 05:43:58;;;;;;;22.77;15.85;;;;;;;11.58;69.68;94953.81;5014064;28;20049;-77
2022/04/24 05:46:26;;;;;;;8.77;6.50;;;;;;;11.55;68.44;94968.13;5012976;28;20049;-77
2022/04/24 05:48:55;;;;;;;7.00;4.68;;;;;;;11.52;66.91;94993.88;5014329;28;20509;-77
2022/04/24 05:51:23;;;;;;;4.57;2.95;;;;;;;11.42;66.17;94981.41;5013777;28;20515;-77
2022/04/24 05:53:50;;;;;;;3.05;1.80;;;;;;;11.33;65.48;94990.59;5013667;28;20505;-77
2022/04/24 05:56:17;;;;;;;4.28;2.22;;;;;;;11.28;65.41;94998.28;5012719;28;20050;-77
2022/04/24 05:58:45;;;;;;;6.85;2.03;;;;;;;11.24;66.19;94992.75;5013477;28;20460;-77
2022/04/24 06:01:13;;;;;;;3.03;1.35;;;;;;;11.20;65.40;94989.00;5014183;28;20054;-77
2022/04/24 06:03:42;;;;;;;5.25;2.33;;;;;;;11.16;66.37;94989.66;5013906;28;20516;-77
2022/04/24 06:06:10;;;;;;;2.13;1.10;;;;;;;11.11;65.26;94985.13;5013016;28;20089;-77
2022/04/24 06:08:38;;;;;;;3.65;1.48;;;;;;;11.09;66.51;94987.94;5013608;28;20049;-77
2022/04/24 06:11:05;;;;;;;3.20;1.45;;;;;;;11.08;66.13;94982.94;5014234;28;20076;-77
2022/04/24 06:13:33;;;;;;;1.13;0.60;;;;;;;11.04;65.00;94984.41;5013331;28;20049;-77
2022/04/24 06:16:00;;;;;;;6.00;2.13;;;;;;;11.00;66.74;94976.25;5013268;28;20050;-77
2022/04/24 06:18:29;;;;;;;2.58;0.93;;;;;;;10.98;67.01;94987.94;5013592;28;20062;-77
2022/04/24 06:20:58;;;;;;;0.95;0.60;;;;;;;10.96;65.44;94982.94;5013705;28;20050;-77
2022/04/24 06:23:27;;;;;;;0.45;0.38;;;;;;;10.91;64.75;94993.22;5017822;28;20061;-77
2022/04/24 06:25:55;;;;;;;2.97;0.50;;;;;;;10.84;64.97;94987.31;5022125;28;20056;-77
2022/04/24 06:28:22;;;;;;;1.33;0.50;;;;;;;10.81;65.46;94987.78;5016879;28;20056;-76
2022/04/24 06:30:49;;;;;;;4.50;1.40;;;;;;;10.78;66.62;94996.03;5012940;28;20548;-76
2022/04/24 06:33:17;;;;;;;1.67;0.65;;;;;;;10.79;66.68;95006.25;5010770;28;20076;-76
2022/04/24 06:35:45;;;;;;;1.27;0.68;;;;;;;10.78;65.53;95004.66;5009698;28;20432;-76
2022/04/24 06:38:22;;;;;;;1.02;0.30;;;;;;;10.76;66.59;95005.88;5032692;28;20128;-76
2022/04/24 06:40:49;;;;;;;1.92;0.75;;;;;;;10.77;67.55;95012.69;5032860;28;20046;-76
2022/04/24 06:43:17;;;;;;;1.45;0.40;;;;;;;10.75;66.07;95010.31;5023779;28;20050;-76
2022/04/24 06:45:44;;;;;;;2.22;0.47;;;;;;;10.77;67.58;95012.69;4992701;28;20054;-76
2022/04/24 06:48:13;;;;;;;3.08;1.10;;;;;;;10.79;67.97;95011.47;4995365;28;20601;-76
2022/04/24 06:50:42;;;;;;;1.73;0.50;;;;;;;10.78;67.03;95011.66;5011554;28;20426;-76
2022/04/24 06:53:11;;;;;;;0.30;0.30;;;;;;;10.71;66.24;95009.97;5010878;28;20050;-76
2022/04/24 06:55:42;;;;;;;1.30;0.32;;;;;;;10.69;66.09;95016.41;4992673;28;20057;-76
2022/04/24 06:58:11;;;;;;;4.13;1.42;;;;;;;10.68;67.30;95013.00;4996308;28;20042;-76
2022/04/24 07:00:42;;;;;;;6.95;2.58;;;;;;;10.71;68.87;95016.97;5012544;28;20431;-77
2022/04/24 07:03:30;;;;;;;0.95;0.50;;;;;;;10.73;68.30;95017.56;5002591;28;20434;-76
2022/04/24 07:05:58;;;;;;;0.20;0.20;;;;;;;10.74;67.75;95013.94;4996570;28;20110;-76
2022/04/24 07:08:26;;;;;;;0.65;0.28;;;;;;;10.71;66.98;95012.56;5012487;28;20041;-76
2022/04/24 07:10:54;;;;;;;1.23;0.60;;;;;;;10.69;67.41;95014.63;5009469;28;20050;-77
2022/04/24 07:13:23;;;;;;;1.10;0.57;;;;;;;10.68;67.36;95014.81;4993623;28;20060;-76
2022/04/24 07:15:50;;;;;;;1.13;0.40;;;;;;;10.66;67.21;95012.44;5012566;28;20052;-77
2022/04/24 07:18:18;;;;;;;7.43;1.80;;;;;;;10.65;68.56;95010.84;5010587;28;20046;-77
2022/04/24 07:20:45;;;;;;;1.17;0.32;;;;;;;10.64;67.52;95018.88;5008034;28;20054;-77
2022/04/24 07:23:13;;;;;;;1.15;0.73;;;;;;;10.62;67.83;95020.91;5004844;28;20065;-76
2022/04/24 07:25:43;;;;;;;8.77;2.45;;;;;;;10.63;68.56;95017.31;5011804;28;20049;-78
2022/04/24 07:28:13;;;;;;;0.85;0.50;;;;;;;10.57;67.22;95034.63;5008234;28;20395;-77
2022/04/24 07:30:41;;;;;;;1.52;0.50;;;;;;;10.54;67.75;95029.03;5016908;28;20057;-79
2022/04/24 07:33:09;;;;;;;0.30;0.30;;;;;;;10.50;66.96;95028.69;5022738;28;20058;-78
2022/04/24 07:35:38;;;;;;;0.95;0.60;;;;;;;10.49;68.53;95032.31;5015683;28;20121;-77
2022/04/24 07:38:06;;;;;;;1.15;0.57;;;;;;;10.51;68.53;95038.88;5013133;28;20453;-77
2022/04/24 07:40:36;;;;;;;5.57;1.63;;;;;;;10.54;69.08;95034.25;5012017;28;20045;-77
2022/04/24 07:43:05;;;;;;;1.33;1.13;;;;;;;10.55;69.15;95030.63;5003078;28;20141;-77
2022/04/24 07:45:35;;;;;;;0.82;0.40;;;;;;;10.58;69.22;95027.59;4997266;28;20043;-77
2022/04/24 07:48:05;;;;;;;0.20;0.20;;;;;;;10.57;68.18;95034.63;5015220;28;20049;-76
2022/04/24 07:50:34;;;;;;;0.80;0.28;;;;;;;10.52;67.65;95024.84;5000390;28;20054;-76
2022/04/24 07:53:02;;;;;;;1.45;0.82;;;;;;;10.51;68.25;95031.06;5008072;28;20046;-76
2022/04/24 07:55:31;;;;;;;0.20;0.20;;;;;;;10.53;68.35;95017.81;5010778;28;20050;-76
2022/04/24 07:57:59;;;;;;;0.75;0.20;;;;;;;10.54;68.02;95016.00;5008709;28;20053;-76
2022/04/24 08:00:29;;;;;;;2.35;0.63;;;;;;;10.55;68.31;95012.38;5001662;28;20053;-77
2022/04/24 08:03:02;;;;;;;0.63;0.50;;;;;;;10.56;68.23;95021.78;5002662;28;20038;-78
2022/04/24 08:05:33;;;;;;;0.60;0.55;;;;;;;10.57;68.12;95013.75;4997765;28;20037;-78
2022/04/24 08:08:02;;;;;;;0.65;0.30;;;;;;;10.58;68.20;95017.16;4996164;28;20490;-78
2022/04/24 08:10:31;;;;;;;1.70;0.45;;;;;;;10.60;68.33;95020.34;5015570;28;20053;-77
2022/04/24 08:12:59;;;;;;;2.03;0.63;;;;;;;10.62;68.82;95021.69;5014778;28;20050;-78
2022/04/24 08:15:26;;;;;;;1.20;0.80;;;;;;;10.64;68.61;95024.88;5000480;28;20064;-77
2022/04/24 08:17:54;;;;;;;0.85;0.30;;;;;;;10.66;68.42;95020.25;5014740;28;20050;-77
2022/04/24 08:20:23;;;;;;;0.65;0.50;;;;;;;10.66;68.59;95028.06;5015401;28;20052;-77
2022/04/24 08:22:52;;;;;;;0.50;0.25;;;;;;;10.64;67.94;95014.47;5015686;28;20052;-77
2022/04/24 08:25:22;;;;;;;0.25;0.25;;;;;;;10.61;66.50;95025.34;4997274;28;20050;-77
2022/04/24 08:27:51;;;;;;;0.75;0.20;;;;;;;10.57;67.41;95029.41;5003479;28;20056;-77
2022/04/24 08:30:20;;;;;;;0.47;0.20;;;;;;;10.55;67.18;95033.25;5015128;28;20049;-77
2022/04/24 08:32:48;;;;;;;0.10;0.00;;;;;;;10.52;66.78;95029.28;5012649;28;20045;-77
2022/04/24 08:35:18;;;;;;;0.45;0.22;;;;;;;10.50;67.00;95033.91;5003621;28;20403;-78
2022/04/24 08:37:47;;;;;;;0.35;0.28;;;;;;;10.44;67.15;95040.78;5013884;28;20069;-78
2022/04/24 08:40:17;;;;;;;1.58;0.13;;;;;;;10.43;67.13;95038.38;5012378;28;20056;-78
2022/04/24 08:42:45;;;;;;;0.20;0.15;;;;;;;10.41;67.51;95049.06;5000372;28;20050;-78
2022/04/24 08:45:14;;;;;;;2.70;0.88;;;;;;;10.43;68.18;95051.41;4995245;28;20524;-78
2022/04/24 08:47:42;;;;;;;0.13;0.10;;;;;;;10.38;67.21;95036.44;4994452;28;20050;-77
2022/04/24 08:50:11;;;;;;;0.52;0.25;;;;;;;10.37;67.66;95039.28;4996806;28;20042;-77
2022/04/24 08:52:42;;;;;;;0.73;0.20;;;;;;;10.36;67.16;95035.84;5014374;28;20057;-78
2022/04/24 08:55:12;;;;;;;0.43;0.10;;;;;;;10.38;67.69;95038.25;5013248;28;20046;-77
2022/04/24 08:57:39;;;;;;;0.65;0.10;;;;;;;10.39;67.11;95043.25;4994660;28;20061;-76
2022/04/24 09:00:09;;;;;;;0.38;0.10;;;;;;;10.38;67.43;95038.25;5008557;28;20505;-77
2022/04/24 09:02:52;;;;;;;1.00;0.47;;;;;;;10.41;68.15;95037.84;5013187;28;20082;-77
2022/04/24 09:05:21;;;;;;;0.80;0.45;;;;;;;10.42;67.69;95032.38;5014432;28;20567;-78
2022/04/24 09:07:52;;;;;;;0.47;0.30;;;;;;;10.46;68.21;95040.56;5015075;28;20053;-78
2022/04/24 09:10:51;;;;;;;0.57;0.20;;;;;;;10.47;68.12;95035.16;5012505;28;20066;-78
2022/04/24 09:13:26;;;;;;;0.10;0.05;;;;;;;10.47;67.53;95034.34;5010226;28;20046;-76
2022/04/24 09:15:56;;;;;;;0.50;0.30;;;;;;;10.46;68.12;95032.75;5013929;28;20045;-78
2022/04/24 09:18:24;;;;;;;1.27;0.10;;;;;;;10.46;67.96;95036.16;5014544;28;20049;-80
2022/04/24 09:20:55;;;;;;;1.65;0.68;;;;;;;10.51;69.92;95045.91;5014662;28;20506;-80
2022/04/24 09:23:22;;;;;;;0.20;0.10;;;;;;;10.55;68.78;95041.84;5013330;28;20490;-78
2022/04/24 09:25:51;;;;;;;0.80;0.20;;;;;;;10.59;68.13;95045.63;5013472;28;20050;-79
2022/04/24 09:28:19;;;;;;;0.88;0.60;;;;;;;10.63;68.98;95059.81;5010764;28;20046;-79
2022/04/24 09:30:50;;;;;;;2.30;0.20;;;;;;;10.64;67.58;95058.78;4996573;28;20068;-78
2022/04/24 09:33:17;;;;;;;1.02;0.52;;;;;;;10.66;69.29;95059.38;5010050;28;20053;-80
2022/04/24 09:35:55;;;;;;;0.20;0.17;;;;;;;10.69;68.53;95064.16;5018496;28;20045;-81
2022/04/24 09:41:18;;;;;;;1.52;0.60;;;;;;;10.78;69.69;95074.28;5000824;28;20054;-79
2022/04/24 09:43:46;;;;;;;2.00;0.32;;;;;;;10.80;68.56;95075.66;4984334;28;20490;-78
2022/04/24 09:46:13;;;;;;;0.35;0.20;;;;;;;10.82;68.82;95078.84;4978762;28;20049;-79
2022/04/24 09:48:51;;;;;;;1.00;0.40;;;;;;;10.83;70.40;95075.22;4980875;28;20153;-79
2022/04/24 09:53:58;;;;;;;1.05;0.73;;;;;;;10.92;68.65;95088.75;5882209;22;20053;-79
2022/04/24 09:56:28;;;;;;;1.60;0.60;;;;;;;10.95;68.95;95092.72;5014232;28;20072;-80
2022/04/24 09:58:56;;;;;;;0.10;0.10;;;;;;;10.97;68.61;95096.69;5011936;28;20601;-79
2022/04/24 10:01:24;;;;;;;0.13;0.10;;;;;;;10.99;68.28;95093.88;5011691;28;20050;-80
2022/04/24 10:03:52;;;;;;;0.82;0.38;;;;;;;11.00;69.21;95106.72;5006316;28;20050;-79
2022/04/24 10:06:22;;;;;;;0.55;0.17;;;;;;;11.01;68.35;95104.88;4995766;28;20047;-81
2022/04/24 10:08:50;;;;;;;1.08;0.43;;;;;;;11.01;68.62;95097.84;5017654;28;20041;-79
2022/04/24 10:11:19;;;;;;;1.60;0.35;;;;;;;11.03;68.10;95095.81;5010021;28;20110;-81
2022/04/24 10:13:51;;;;;;;0.22;0.15;;;;;;;11.05;68.90;95099.00;4999634;28;20050;-80
2022/04/24 10:16:32;;;;;;;0.90;0.20;;;;;;;11.07;68.10;95104.81;5010730;28;20054;-81
2022/04/24 10:19:12;;;;;;;0.55;0.22;;;;;;;11.08;68.30;95103.78;5014913;28;20514;-81
2022/04/24 10:21:55;;;;;;;1.35;0.40;;;;;;;11.12;70.05;95112.75;5013038;28;20038;-81
2022/04/24 10:24:23;;;;;;;1.75;0.30;;;;;;;11.14;68.88;95108.09;5014074;28;20045;-81
2022/04/24 10:26:59;;;;;;;0.50;0.43;;;;;;;11.17;68.60;95116.50;5007147;28;20085;-81
2022/04/24 10:29:29;;;;;;;0.52;0.22;;;;;;;11.17;67.48;95117.31;5027567;28;20058;-81
2022/04/24 10:31:59;;;;;;;0.25;0.20;;;;;;;11.19;67.64;95119.69;5021896;28;20089;-81
2022/04/24 10:34:38;;;;;;;0.50;0.22;;;;;;;11.21;67.51;95113.25;5017646;28;20065;-81
2022/04/24 10:37:06;;;;;;;1.52;0.50;;;;;;;11.24;67.71;95110.19;5028617;28;20061;-81
2022/04/24 10:39:35;;;;;;;0.65;0.20;;;;;;;11.27;67.92;95114.97;5027441;28;20098;-81
2022/04/24 10:42:09;;;;;;;0.80;0.45;;;;;;;11.31;66.62;95118.72;5031840;28;20070;-81
2022/04/24 10:44:50;;;;;;;1.50;0.30;;;;;;;11.34;67.90;95107.81;5016535;28;20050;-81
2022/04/24 10:47:18;;;;;;;0.60;0.20;;;;;;;11.39;66.88;95108.97;5013874;28;20026;-81
2022/04/24 10:49:46;;;;;;;0.17;0.17;;;;;;;11.41;66.04;95109.56;5033647;28;20044;-81
2022/04/24 10:52:15;;;;;;;0.20;0.20;;;;;;;11.45;66.75;95108.88;5033647;28;20057;-81
2022/04/24 10:54:44;;;;;;;0.30;0.20;;;;;;;11.52;66.06;95111.41;5063104;22;20021;-76
2022/04/24 10:57:17;;;;;;;0.10;0.10;;;;;;;11.57;65.95;95114.16;4991423;28;20459;-78
2022/04/24 10:59:49;;;;;;;0.20;0.03;;;;;;;11.59;65.80;95106.06;4997199;28;20073;-83
2022/04/24 11:02:23;;;;;;;0.55;0.15;;;;;;;11.61;65.77;95117.09;4995079;28;20046;-81
2022/04/24 11:05:02;;;;;;;3.10;0.37;;;;;;;11.65;66.38;95108.56;4993430;28;20137;-81
2022/04/24 11:07:31;;;;;;;0.10;0.10;;;;;;;11.70;66.16;95113.94;4995373;28;20307;-81
2022/04/24 11:10:03;;;;;;;0.10;0.10;;;;;;;11.77;64.79;95116.44;4993393;28;20105;-81
2022/04/24 11:15:16;;;;;;;0.65;0.35;;;;;;;11.83;64.92;95126.00;4995227;28;20526;-82
2022/04/24 11:17:43;;;;;;;0.08;0.00;;;;;;;11.83;63.54;95128.63;4991961;28;20046;-80
2022/04/24 11:20:13;;;;;;;0.30;0.20;;;;;;;11.81;63.31;95128.03;4993733;28;20065;-81
2022/04/24 11:22:46;;;;;;;0.75;0.10;;;;;;;11.80;63.49;95120.41;4992556;28;20502;-81
2022/04/24 11:25:15;;;;;;;0.10;0.10;;;;;;;11.82;63.00;95127.00;4993274;28;20054;-81
2022/04/24 11:27:44;;;;;;;0.03;0.03;;;;;;;11.84;62.88;95119.75;4992066;28;20054;-81
2022/04/24 11:30:17;;;;;;;1.00;0.30;;;;;;;11.90;63.62;95128.53;4993250;28;20046;-80
2022/04/24 11:32:57;;;;;;;1.38;0.28;;;;;;;11.95;62.90;95134.66;4992605;28;20043;-80
2022/04/24 11:35:25;;;;;;;0.30;0.15;;;;;;;11.99;63.32;95142.06;4992705;28;20418;-81
2022/04/24 11:37:54;;;;;;;0.10;0.10;;;;;;;12.04;63.35;95139.56;4992578;28;20054;-79
2022/04/24 11:40:22;;;;;;;0.10;0.10;;;;;;;12.08;61.93;95145.94;4992550;28;20542;-81
2022/04/24 11:43:10;;;;;;;0.20;0.20;;;;;;;12.16;62.29;95129.91;4992729;28;20054;-81
2022/04/24 11:51:13;;;;;;;0.00;0.00;;;;;;;12.41;62.06;95141.94;4973004;28;20059;-80
2022/04/24 11:54:01;;;;;;;0.00;0.00;;;;;;;12.48;60.97;95147.84;4991964;28;20054;-80
2022/04/24 11:56:32;;;;;;;0.00;0.00;;;;;;;12.53;60.14;95150.59;4992525;28;20064;-79
2022/04/24 11:59:14;;;;;;;0.20;0.00;;;;;;;12.52;60.01;95155.00;4993248;28;20050;-78
2022/04/24 12:01:44;;;;;;;0.10;0.10;;;;;;;12.52;60.59;95149.78;4993670;28;20055;-78
2022/04/24 12:04:19;;;;;;;0.10;0.10;;;;;;;12.54;61.03;95154.78;4994084;28;20054;-79
2022/04/24 12:06:48;;;;;;;1.27;0.30;;;;;;;12.57;61.67;95147.28;4992364;28;20506;-80
2022/04/24 12:09:22;;;;;;;0.77;0.40;;;;;;;12.61;61.42;95159.91;4974503;28;20078;-80
2022/04/24 12:12:12;;;;;;;0.57;0.57;;;;;;;12.62;60.72;95153.66;4984903;28;20046;-79
2022/04/24 12:14:41;;;;;;;0.10;0.10;;;;;;;12.58;60.69;95148.06;4993431;28;20074;-79
2022/04/24 12:17:12;;;;;;;0.70;0.20;;;;;;;12.56;61.64;95156.16;4991650;28;20069;-82
2022/04/24 12:19:41;;;;;;;0.20;0.20;;;;;;;12.55;60.84;95153.75;4992857;28;20058;-82
2022/04/24 12:22:11;;;;;;;0.60;0.20;;;;;;;12.52;61.80;95156.84;4992492;28;20518;-82
2022/04/24 12:24:43;;;;;;;0.65;0.40;;;;;;;12.52;61.99;95159.44;4992555;28;20078;-82
2022/04/24 12:27:13;;;;;;;;;;;;;;;12.54;62.32;95152.16;4992957;28;20054;-81
2022/04/24 12:29:43;;;;;;;0.60;0.30;;;;;;;12.51;62.22;95160.50;4995157;28;19928;-82
2022/04/24 12:32:14;;;;;;;0.30;0.30;;;;;;;12.48;61.94;95163.53;4996141;28;20133;-82
2022/04/24 12:34:43;;;;;;;0.57;0.52;;;;;;;12.45;62.56;95164.81;4996095;28;20050;-82
2022/04/24 12:37:11;;;;;;;0.88;0.30;;;;;;;12.47;63.57;95164.59;4995515;28;20425;-83
2022/04/24 12:39:39;;;;;;;0.20;0.20;;;;;;;12.45;62.26;95166.63;4997649;28;20042;-83
2022/04/24 12:42:16;;;;;;;0.52;0.17;;;;;;;12.39;62.43;95165.72;4996481;28;20433;-82
2022/04/24 12:44:45;;;;;;;0.20;0.20;;;;;;;12.37;63.57;95162.53;4996753;28;20129;-82
2022/04/24 12:47:14;;;;;;;0.30;0.30;;;;;;;12.32;64.40;95162.41;4998805;28;20046;-82
2022/04/24 12:49:44;;;;;;;0.45;0.30;;;;;;;12.26;64.38;95166.72;4997541;28;20506;-83
2022/04/24 12:52:11;;;;;;;0.38;0.30;;;;;;;12.19;63.70;95163.44;4997034;28;20129;-82
2022/04/24 12:54:41;;;;;;;0.30;0.20;;;;;;;12.14;65.13;95152.88;4998825;28;20051;-83
2022/04/24 12:57:10;;;;;;;0.30;0.30;;;;;;;12.09;65.00;95144.91;4999289;28;20054;-79
2022/04/24 12:59:39;;;;;;;1.27;0.20;;;;;;;12.04;65.49;95142.97;4995505;28;20046;-78
2022/04/24 13:02:07;;;;;;;0.17;0.17;;;;;;;11.99;65.40;95140.25;4995218;28;20709;-78
2022/04/24 13:04:37;;;;;;;0.30;0.30;;;;;;;11.91;65.27;95141.34;5001377;28;20122;-79
2022/04/24 13:07:05;;;;;;;0.40;0.40;;;;;;;11.86;65.24;95140.44;5006510;28;20074;-79
2022/04/24 13:09:33;;;;;;;0.60;0.60;;;;;;;11.81;66.29;95148.16;4999465;28;20043;-78
2022/04/24 13:12:01;;;;;;;0.63;0.52;;;;;;;11.78;66.87;95159.81;4995389;28;20502;-79
2022/04/24 13:14:28;;;;;;;0.30;0.30;;;;;;;11.77;66.96;95155.63;4995722;28;20109;-78
2022/04/24 13:19:42;;;;;;;0.20;0.20;;;;;;;11.66;66.07;95159.81;4995038;28;20514;-78
2022/04/24 13:22:10;;;;;;;0.55;0.22;;;;;;;11.63;65.99;95168.09;4995004;28;20415;-78
2022/04/24 13:24:38;;;;;;;0.57;0.28;;;;;;;11.63;66.90;95172.50;4995086;28;20050;-78
2022/04/24 13:27:07;;;;;;;0.57;0.40;;;;;;;11.63;66.21;95175.13;4993978;28;20070;-79
2022/04/24 13:29:34;;;;;;;0.77;0.30;;;;;;;11.64;66.35;95174.13;4994724;28;20093;-78
2022/04/24 13:32:04;;;;;;;0.25;0.25;;;;;;;11.63;66.21;95177.72;4995010;28;20046;-78
2022/04/24 13:34:31;;;;;;;0.28;0.25;;;;;;;11.63;66.69;95181.16;4994814;28;20054;-79
2022/04/24 13:39:46;;;;;;;0.30;0.30;;;;;;;11.61;66.56;95171.94;4994712;28;20046;-78
2022/04/24 13:42:14;;;;;;;0.28;0.25;;;;;;;11.61;66.12;95185.00;4994510;28;20050;-78
2022/04/24 13:44:42;;;;;;;0.32;0.30;;;;;;;11.60;66.73;95173.75;4994668;28;20056;-79
2022/04/24 13:47:09;;;;;;;0.15;0.15;;;;;;;11.62;66.56;95176.16;4993621;28;20061;-78
2022/04/24 13:49:40;;;;;;;1.00;0.40;;;;;;;11.61;67.07;95174.53;4994317;28;20073;-78
2022/04/24 13:52:10;;;;;;;0.90;0.30;;;;;;;11.60;67.50;95170.34;4992556;28;20051;-80
2022/04/24 13:54:37;;;;;;;0.30;0.30;;;;;;;11.62;66.70;95176.94;4974859;28;20047;-79
2022/04/24 13:57:05;;;;;;;0.50;0.50;;;;;;;11.62;67.54;95181.38;4990359;28;20510;-80
2022/04/24 13:59:32;;;;;;;0.73;0.38;;;;;;;11.61;66.89;95169.31;4994526;28;20544;-79
2022/04/24 14:02:00;;;;;;;0.85;0.22;;;;;;;11.62;67.52;95176.16;4994310;28;20062;-79
2022/04/24 14:04:28;;;;;;;0.50;0.50;;;;;;;11.60;67.54;95173.75;4993494;28;20050;-79
2022/04/24 14:06:55;;;;;;;0.43;0.35;;;;;;;11.58;67.88;95173.19;4993496;28;20068;-79
2022/04/24 14:09:24;;;;;;;0.30;0.30;;;;;;;11.55;68.06;95177.03;4994316;28;20053;-78
2022/04/24 14:11:52;;;;;;;0.43;0.25;;;;;;;11.55;67.99;95181.47;4994301;28;20054;-78
2022/04/24 14:14:20;;;;;;;0.55;0.25;;;;;;;11.53;67.25;95180.91;4993795;28;20046;-77
2022/04/24 14:16:47;;;;;;;0.32;0.30;;;;;;;11.52;67.86;95174.88;4992800;28;20054;-78
2022/04/24 14:19:15;;;;;;;0.43;0.30;;;;;;;11.51;68.05;95186.34;4993803;28;20105;-78
2022/04/24 14:21:42;;;;;;;4.53;0.50;;;;;;;11.51;68.51;95180.31;4993554;28;20061;-82
2022/04/24 14:24:10;;;;;;;0.95;0.60;;;;;;;11.52;68.94;95179.28;4993776;28;20062;-78
2022/04/24 14:26:39;;;;;;;0.68;0.40;;;;;;;11.53;69.42;95184.28;4992955;28;20050;-78
2022/04/24 14:29:11;;;;;;;1.38;0.45;;;;;;;11.55;69.54;95182.25;4974361;28;20051;-78
2022/04/24 14:31:39;;;;;;;0.32;0.32;;;;;;;11.55;69.05;95182.25;4986738;28;20057;-83
2022/04/24 14:34:07;;;;;;;0.30;0.30;;;;;;;11.52;68.45;95190.56;4996379;28;20573;-81
2022/04/24 14:36:35;;;;;;;0.38;0.28;;;;;;;11.52;67.93;95192.34;4999273;28;20050;-83
2022/04/24 14:39:02;;;;;;;4.55;0.57;;;;;;;11.49;68.54;95192.81;5011751;28;20081;-82
2022/04/24 14:41:30;;;;;;;1.02;0.30;;;;;;;11.45;67.81;95187.22;5007698;28;20070;-83
2022/04/24 14:44:00;;;;;;;0.95;0.28;;;;;;;11.43;68.46;95189.25;5110132;22;20101;-81
2022/04/24 14:57:32;;;;;;;0.20;0.20;;;;;;;11.39;68.70;95201.19;5003374;28;20052;-81
2022/04/24 15:00:01;;;;;;;1.15;0.20;;;;;;;11.38;68.89;95202.19;5007556;28;20057;-81
2022/04/24 15:02:30;;;;;;;1.02;0.47;;;;;;;11.37;68.60;95200.59;5013480;28;20151;-80
2022/04/24 15:04:58;;;;;;;0.40;0.30;;;;;;;11.36;67.78;95206.81;5013568;28;20049;-81
2022/04/24 15:07:26;;;;;;;1.38;0.20;;;;;;;11.35;67.69;95215.69;5008425;28;20065;-81
2022/04/24 15:09:54;;;;;;;0.43;0.40;;;;;;;11.35;67.13;95213.06;5013287;28;20056;-81
2022/04/24 15:12:22;;;;;;;1.02;0.57;;;;;;;11.36;67.76;95209.44;5016990;28;20050;-81
2022/04/24 15:14:49;;;;;;;0.22;0.22;;;;;;;11.39;69.27;95203.78;4996896;28;20498;-80
2022/04/24 15:17:18;;;;;;;0.22;0.20;;;;;;;11.40;68.97;95215.81;4998795;28;20136;-81
2022/04/24 15:19:46;;;;;;;0.95;0.43;;;;;;;11.41;69.59;95212.16;5016981;28;20053;-81
2022/04/24 15:22:15;;;;;;;0.30;0.28;;;;;;;11.41;68.88;95211.38;5012447;28;20053;-81
2022/04/24 15:24:42;;;;;;;0.10;0.10;;;;;;;11.41;68.72;95227.84;4994957;28;20046;-81
2022/04/24 15:27:30;;;;;;;0.38;0.30;;;;;;;11.41;68.71;95217.38;5003750;28;20438;-82
2022/04/24 15:29:59;;;;;;;0.90;0.30;;;;;;;11.41;69.91;95227.03;5011013;28;20469;-81
2022/04/24 15:32:28;;;;;;;0.85;0.70;;;;;;;11.42;69.77;95233.88;5023541;28;20098;-81
2022/04/24 15:34:56;;;;;;;0.32;0.20;;;;;;;11.38;69.36;95233.50;4997723;28;20477;-81
2022/04/24 15:37:27;;;;;;;0.30;0.30;;;;;;;11.35;69.80;95228.75;5007298;28;20296;-81
2022/04/24 15:39:56;;;;;;;0.22;0.22;;;;;;;11.29;69.16;95230.41;5010644;28;20077;-81
2022/04/24 15:42:25;;;;;;;0.45;0.30;;;;;;;11.28;69.25;95233.22;5007222;28;20050;-81
2022/04/24 15:47:51;;;;;;;0.47;0.47;;;;;;;11.27;69.51;95244.69;5008526;28;20056;-81
2022/04/24 15:52:56;;;;;;;0.60;0.60;;;;;;;11.25;69.81;95241.50;5632608;22;20057;-80
2022/04/24 15:55:27;;;;;;;0.57;0.57;;;;;;;11.25;70.15;95241.50;5012217;28;20453;-79
2022/04/24 15:57:55;;;;;;;0.40;0.40;;;;;;;11.26;70.75;95245.69;4993347;28;20056;-80
2022/04/24 16:00:23;;;;;;;0.60;0.50;;;;;;;11.27;70.75;95242.88;4993737;28;20046;-79
2022/04/24 16:02:56;;;;;;;0.60;0.60;;;;;;;11.30;71.34;95241.63;5012587;28;20053;-79
2022/04/24 16:05:25;;;;;;;0.70;0.60;;;;;;;11.29;71.30;95245.28;5007897;28;20056;-79
2022/04/24 16:07:55;;;;;;;0.70;0.55;;;;;;;11.26;70.79;95241.28;4997924;28;20046;-79
2022/04/24 16:10:23;;;;;;;1.17;1.05;;;;;;;11.29;71.42;95250.50;5016935;28;20046;-79
2022/04/24 16:12:51;;;;;;;0.45;0.45;;;;;;;11.26;71.17;95245.69;5011467;28;20057;-78
2022/04/24 16:15:20;;;;;;;0.88;0.70;;;;;;;11.24;71.31;95253.75;5016542;28;20110;-79
2022/04/24 16:17:47;;;;;;;0.77;0.60;;;;;;;11.23;71.62;95251.38;5010215;28;20050;-79
2022/04/24 16:20:17;;;;;;;0.40;0.40;;;;;;;11.21;72.34;95250.78;5009057;28;20445;-79
2022/04/24 16:22:45;;;;;;;1.10;0.47;;;;;;;11.20;71.46;95251.81;5015694;28;20057;-79
2022/04/24 16:28:30;;;;;;;0.38;0.38;;;;;;;11.16;72.09;95255.88;5017881;28;20049;-82
2022/04/24 16:31:01;;;;;;;0.50;0.50;;;;;;;11.12;72.37;95256.28;5022319;28;20074;-82
2022/04/24 16:33:33;;;;;;;0.50;0.50;;;;;;;11.13;72.30;95257.91;5019884;28;20053;-82